sensor_id;sensor_type;location;lat;lon;timestamp;P1;durP1;ratioP1;P2;durP2;ratioP2
2313;SDS011;42279;51.388;7.000;2023-04-22T00:00:24;46.30;;;10.93;;
2313;SDS011;42279;51.388;7.000;2023-04-22T00:02:50;54.47;;;9.77;;
2313;SDS011;42279;51.388;7.000;2023-04-22T00:05:16;110.10;;;11.50;;
2313;SDS011;42279;51.388;7.000;2023-04-22T00:07:42;22.37;;;9.57;;
2313;SDS011;42279;51.388;7.000;2023-04-22T00:10:09;98.33;;;11.90;;
2313;SDS011;42279;51.388;7.000;2023-04-22T00:12:35;19.87;;;9.73;;
2313;SDS011;42279;51.388;7.000;2023-04-22T00:15:01;63.33;;;11.60;;
2313;SDS011;42279;51.388;7.000;2023-04-22T00:17:27;21.23;;;10.83;;
2313;SDS011;42279;51.388;7.000;2023-04-22T00:19:52;18.30;;;10.80;;
2313;SDS011;42279;51.388;7.000;2023-04-22T00:22:18;43.50;;;10.53;;
2313;SDS011;42279;51.388;7.000;2023-04-22T00:24:44;40.30;;;10.13;;
2313;SDS011;42279;51.388;7.000;2023-04-22T00:27:10;29.70;;;10.20;;
2313;SDS011;42279;51.388;7.000;2023-04-22T00:29:36;15.67;;;10.50;;
2313;SDS011;42279;51.388;7.000;2023-04-22T00:32:02;16.63;;;9.83;;
2313;SDS011;42279;51.388;7.000;2023-04-22T00:34:27;21.10;;;11.57;;
2313;SDS011;42279;51.388;7.000;2023-04-22T00:36:53;30.67;;;12.40;;
2313;SDS011;42279;51.388;7.000;2023-04-22T00:39:19;14.00;;;10.93;;
2313;SDS011;42279;51.388;7.000;2023-04-22T00:41:45;14.43;;;10.20;;
2313;SDS011;42279;51.388;7.000;2023-04-22T00:44:11;12.80;;;10.40;;
2313;SDS011;42279;51.388;7.000;2023-04-22T00:46:37;29.60;;;10.63;;
2313;SDS011;42279;51.388;7.000;2023-04-22T00:49:03;10.97;;;9.97;;
2313;SDS011;42279;51.388;7.000;2023-04-22T00:51:30;12.03;;;10.80;;
2313;SDS011;42279;51.388;7.000;2023-04-22T00:53:56;12.17;;;10.67;;
2313;SDS011;42279;51.388;7.000;2023-04-22T00:56:24;15.47;;;10.47;;
2313;SDS011;42279;51.388;7.000;2023-04-22T00:58:51;17.40;;;10.90;;
2313;SDS011;42279;51.388;7.000;2023-04-22T01:01:18;15.80;;;10.80;;
2313;SDS011;42279;51.388;7.000;2023-04-22T01:03:44;19.97;;;11.37;;
2313;SDS011;42279;51.388;7.000;2023-04-22T01:06:11;13.47;;;11.57;;
2313;SDS011;42279;51.388;7.000;2023-04-22T01:08:37;13.23;;;11.33;;
2313;SDS011;42279;51.388;7.000;2023-04-22T01:11:04;12.87;;;10.20;;
2313;SDS011;42279;51.388;7.000;2023-04-22T01:13:30;11.53;;;10.47;;
2313;SDS011;42279;51.388;7.000;2023-04-22T01:15:56;10.67;;;9.57;;
2313;SDS011;42279;51.388;7.000;2023-04-22T01:18:23;12.50;;;11.30;;
2313;SDS011;42279;51.388;7.000;2023-04-22T01:20:51;13.97;;;11.13;;
2313;SDS011;42279;51.388;7.000;2023-04-22T01:23:20;12.40;;;11.07;;
2313;SDS011;42279;51.388;7.000;2023-04-22T01:25:46;13.00;;;11.80;;
2313;SDS011;42279;51.388;7.000;2023-04-22T01:28:12;10.10;;;9.07;;
2313;SDS011;42279;51.388;7.000;2023-04-22T01:30:39;12.50;;;10.50;;
2313;SDS011;42279;51.388;7.000;2023-04-22T01:33:06;11.17;;;10.03;;
2313;SDS011;42279;51.388;7.000;2023-04-22T01:35:33;11.20;;;9.97;;
2313;SDS011;42279;51.388;7.000;2023-04-22T01:38:10;13.40;;;11.00;;
2313;SDS011;42279;51.388;7.000;2023-04-22T01:40:37;14.40;;;11.93;;
2313;SDS011;42279;51.388;7.000;2023-04-22T01:43:03;13.63;;;11.13;;
2313;SDS011;42279;51.388;7.000;2023-04-22T01:45:30;15.23;;;11.10;;
2313;SDS011;42279;51.388;7.000;2023-04-22T01:47:55;17.03;;;12.23;;
2313;SDS011;42279;51.388;7.000;2023-04-22T01:50:21;13.90;;;11.43;;
2313;SDS011;42279;51.388;7.000;2023-04-22T01:52:47;14.57;;;10.90;;
2313;SDS011;42279;51.388;7.000;2023-04-22T01:55:13;20.17;;;12.17;;
2313;SDS011;42279;51.388;7.000;2023-04-22T01:57:39;11.10;;;10.13;;
2313;SDS011;42279;51.388;7.000;2023-04-22T02:00:05;15.93;;;10.97;;
2313;SDS011;42279;51.388;7.000;2023-04-22T02:02:34;12.40;;;10.50;;
2313;SDS011;42279;51.388;7.000;2023-04-22T02:05:01;12.33;;;11.13;;
2313;SDS011;42279;51.388;7.000;2023-04-22T02:07:28;9.90;;;8.83;;
2313;SDS011;42279;51.388;7.000;2023-04-22T02:09:53;13.60;;;11.77;;
2313;SDS011;42279;51.388;7.000;2023-04-22T02:12:20;10.60;;;9.50;;
2313;SDS011;42279;51.388;7.000;2023-04-22T02:14:45;11.77;;;10.57;;
2313;SDS011;42279;51.388;7.000;2023-04-22T02:17:11;17.00;;;12.40;;
2313;SDS011;42279;51.388;7.000;2023-04-22T02:19:38;13.07;;;11.60;;
2313;SDS011;42279;51.388;7.000;2023-04-22T02:22:04;13.30;;;11.70;;
2313;SDS011;42279;51.388;7.000;2023-04-22T02:24:31;12.43;;;11.10;;
2313;SDS011;42279;51.388;7.000;2023-04-22T02:26:57;13.53;;;12.23;;
2313;SDS011;42279;51.388;7.000;2023-04-22T02:29:22;14.07;;;12.40;;
2313;SDS011;42279;51.388;7.000;2023-04-22T02:31:49;13.07;;;11.77;;
2313;SDS011;42279;51.388;7.000;2023-04-22T02:34:15;13.27;;;11.97;;
2313;SDS011;42279;51.388;7.000;2023-04-22T02:36:41;12.27;;;11.13;;
2313;SDS011;42279;51.388;7.000;2023-04-22T02:39:07;11.80;;;10.60;;
2313;SDS011;42279;51.388;7.000;2023-04-22T02:41:33;12.23;;;9.77;;
2313;SDS011;42279;51.388;7.000;2023-04-22T02:44:00;12.30;;;11.00;;
2313;SDS011;42279;51.388;7.000;2023-04-22T02:46:25;11.73;;;10.20;;
2313;SDS011;42279;51.388;7.000;2023-04-22T02:48:51;11.87;;;10.80;;
2313;SDS011;42279;51.388;7.000;2023-04-22T02:51:17;11.30;;;10.20;;
2313;SDS011;42279;51.388;7.000;2023-04-22T02:53:42;10.80;;;9.80;;
2313;SDS011;42279;51.388;7.000;2023-04-22T02:56:08;12.93;;;11.63;;
2313;SDS011;42279;51.388;7.000;2023-04-22T02:58:34;10.70;;;9.70;;
2313;SDS011;42279;51.388;7.000;2023-04-22T03:00:59;11.47;;;10.27;;
2313;SDS011;42279;51.388;7.000;2023-04-22T03:03:25;22.80;;;12.37;;
2313;SDS011;42279;51.388;7.000;2023-04-22T03:05:52;10.90;;;9.07;;
2313;SDS011;42279;51.388;7.000;2023-04-22T03:08:18;9.93;;;9.07;;
2313;SDS011;42279;51.388;7.000;2023-04-22T03:10:44;9.30;;;8.60;;
2313;SDS011;42279;51.388;7.000;2023-04-22T03:13:11;10.20;;;9.30;;
2313;SDS011;42279;51.388;7.000;2023-04-22T03:15:39;8.77;;;8.07;;
2313;SDS011;42279;51.388;7.000;2023-04-22T03:18:05;9.33;;;8.37;;
2313;SDS011;42279;51.388;7.000;2023-04-22T03:20:31;9.33;;;8.53;;
2313;SDS011;42279;51.388;7.000;2023-04-22T03:22:56;9.17;;;8.37;;
2313;SDS011;42279;51.388;7.000;2023-04-22T03:25:22;9.13;;;8.33;;
2313;SDS011;42279;51.388;7.000;2023-04-22T03:27:49;9.30;;;8.50;;
2313;SDS011;42279;51.388;7.000;2023-04-22T03:30:14;8.93;;;8.23;;
2313;SDS011;42279;51.388;7.000;2023-04-22T03:32:40;9.67;;;8.87;;
2313;SDS011;42279;51.388;7.000;2023-04-22T03:35:06;9.77;;;8.53;;
2313;SDS011;42279;51.388;7.000;2023-04-22T03:37:31;9.63;;;8.73;;
2313;SDS011;42279;51.388;7.000;2023-04-22T03:39:57;8.70;;;7.90;;
2313;SDS011;42279;51.388;7.000;2023-04-22T03:42:23;8.60;;;8.00;;
2313;SDS011;42279;51.388;7.000;2023-04-22T03:44:48;8.97;;;8.20;;
2313;SDS011;42279;51.388;7.000;2023-04-22T03:47:14;9.37;;;8.40;;
2313;SDS011;42279;51.388;7.000;2023-04-22T03:49:40;9.17;;;8.30;;
2313;SDS011;42279;51.388;7.000;2023-04-22T03:52:06;8.53;;;7.73;;
2313;SDS011;42279;51.388;7.000;2023-04-22T03:54:32;9.07;;;8.30;;
2313;SDS011;42279;51.388;7.000;2023-04-22T03:56:58;9.37;;;8.50;;
2313;SDS011;42279;51.388;7.000;2023-04-22T03:59:24;8.57;;;7.90;;
2313;SDS011;42279;51.388;7.000;2023-04-22T04:01:52;8.50;;;7.80;;
2313;SDS011;42279;51.388;7.000;2023-04-22T04:04:18;10.13;;;9.23;;
2313;SDS011;42279;51.388;7.000;2023-04-22T04:06:44;9.93;;;8.67;;
2313;SDS011;42279;51.388;7.000;2023-04-22T04:09:10;10.70;;;8.17;;
2313;SDS011;42279;51.388;7.000;2023-04-22T04:11:36;9.70;;;8.90;;
2313;SDS011;42279;51.388;7.000;2023-04-22T04:14:01;10.27;;;9.23;;
2313;SDS011;42279;51.388;7.000;2023-04-22T04:16:28;9.43;;;8.63;;
2313;SDS011;42279;51.388;7.000;2023-04-22T04:18:54;11.40;;;10.10;;
2313;SDS011;42279;51.388;7.000;2023-04-22T04:21:19;8.43;;;7.73;;
2313;SDS011;42279;51.388;7.000;2023-04-22T04:23:45;9.43;;;8.63;;
2313;SDS011;42279;51.388;7.000;2023-04-22T04:26:11;8.27;;;7.67;;
2313;SDS011;42279;51.388;7.000;2023-04-22T04:28:39;9.10;;;8.37;;
2313;SDS011;42279;51.388;7.000;2023-04-22T04:31:05;8.93;;;8.03;;
2313;SDS011;42279;51.388;7.000;2023-04-22T04:33:31;10.50;;;8.37;;
2313;SDS011;42279;51.388;7.000;2023-04-22T04:35:57;12.33;;;11.20;;
2313;SDS011;42279;51.388;7.000;2023-04-22T04:38:24;8.53;;;7.63;;
2313;SDS011;42279;51.388;7.000;2023-04-22T04:40:51;8.80;;;8.07;;
2313;SDS011;42279;51.388;7.000;2023-04-22T04:43:19;8.70;;;8.10;;
2313;SDS011;42279;51.388;7.000;2023-04-22T04:45:50;8.10;;;7.33;;
2313;SDS011;42279;51.388;7.000;2023-04-22T04:48:17;9.57;;;8.77;;
2313;SDS011;42279;51.388;7.000;2023-04-22T04:50:44;8.53;;;7.93;;
2313;SDS011;42279;51.388;7.000;2023-04-22T04:53:10;7.93;;;7.33;;
2313;SDS011;42279;51.388;7.000;2023-04-22T04:55:36;8.30;;;7.60;;
2313;SDS011;42279;51.388;7.000;2023-04-22T04:58:02;7.30;;;6.70;;
2313;SDS011;42279;51.388;7.000;2023-04-22T05:00:28;7.83;;;7.20;;
2313;SDS011;42279;51.388;7.000;2023-04-22T05:02:54;7.67;;;7.17;;
2313;SDS011;42279;51.388;7.000;2023-04-22T05:05:20;11.10;;;7.87;;
2313;SDS011;42279;51.388;7.000;2023-04-22T05:07:46;8.77;;;8.07;;
2313;SDS011;42279;51.388;7.000;2023-04-22T05:10:11;8.27;;;7.67;;
2313;SDS011;42279;51.388;7.000;2023-04-22T05:12:37;7.90;;;7.30;;
2313;SDS011;42279;51.388;7.000;2023-04-22T05:15:03;9.17;;;8.37;;
2313;SDS011;42279;51.388;7.000;2023-04-22T05:17:29;7.67;;;7.07;;
2313;SDS011;42279;51.388;7.000;2023-04-22T05:19:56;7.20;;;6.60;;
2313;SDS011;42279;51.388;7.000;2023-04-22T05:22:22;6.53;;;6.07;;
2313;SDS011;42279;51.388;7.000;2023-04-22T05:24:47;7.23;;;6.63;;
2313;SDS011;42279;51.388;7.000;2023-04-22T05:27:13;6.77;;;6.27;;
2313;SDS011;42279;51.388;7.000;2023-04-22T05:29:39;6.60;;;6.20;;
2313;SDS011;42279;51.388;7.000;2023-04-22T05:32:06;6.37;;;5.87;;
2313;SDS011;42279;51.388;7.000;2023-04-22T05:34:35;7.93;;;6.63;;
2313;SDS011;42279;51.388;7.000;2023-04-22T05:37:02;6.80;;;6.40;;
2313;SDS011;42279;51.388;7.000;2023-04-22T05:39:28;7.67;;;7.13;;
2313;SDS011;42279;51.388;7.000;2023-04-22T05:41:54;7.10;;;6.73;;
2313;SDS011;42279;51.388;7.000;2023-04-22T05:44:19;6.03;;;5.73;;
2313;SDS011;42279;51.388;7.000;2023-04-22T05:46:45;5.60;;;5.40;;
2313;SDS011;42279;51.388;7.000;2023-04-22T05:49:11;6.53;;;5.90;;
2313;SDS011;42279;51.388;7.000;2023-04-22T05:51:37;6.30;;;5.73;;
2313;SDS011;42279;51.388;7.000;2023-04-22T05:54:02;6.13;;;5.70;;
2313;SDS011;42279;51.388;7.000;2023-04-22T05:56:28;4.20;;;3.90;;
2313;SDS011;42279;51.388;7.000;2023-04-22T05:58:54;4.30;;;4.07;;
2313;SDS011;42279;51.388;7.000;2023-04-22T06:01:19;3.63;;;3.53;;
2313;SDS011;42279;51.388;7.000;2023-04-22T06:03:46;2.90;;;2.80;;
2313;SDS011;42279;51.388;7.000;2023-04-22T06:06:11;3.07;;;2.97;;
2313;SDS011;42279;51.388;7.000;2023-04-22T06:08:37;3.77;;;3.60;;
2313;SDS011;42279;51.388;7.000;2023-04-22T06:11:02;4.40;;;4.30;;
2313;SDS011;42279;51.388;7.000;2023-04-22T06:13:28;2.80;;;2.80;;
2313;SDS011;42279;51.388;7.000;2023-04-22T06:15:59;3.90;;;3.70;;
2313;SDS011;42279;51.388;7.000;2023-04-22T06:18:25;2.83;;;2.83;;
2313;SDS011;42279;51.388;7.000;2023-04-22T06:20:51;4.10;;;3.90;;
2313;SDS011;42279;51.388;7.000;2023-04-22T06:23:16;6.50;;;4.07;;
2313;SDS011;42279;51.388;7.000;2023-04-22T06:25:42;3.03;;;3.03;;
2313;SDS011;42279;51.388;7.000;2023-04-22T06:28:08;2.80;;;2.80;;
2313;SDS011;42279;51.388;7.000;2023-04-22T06:30:34;4.20;;;4.00;;
2313;SDS011;42279;51.388;7.000;2023-04-22T06:32:59;2.77;;;2.60;;
2313;SDS011;42279;51.388;7.000;2023-04-22T06:35:25;3.40;;;3.20;;
2313;SDS011;42279;51.388;7.000;2023-04-22T06:37:51;2.43;;;2.30;;
2313;SDS011;42279;51.388;7.000;2023-04-22T06:40:16;2.23;;;2.23;;
2313;SDS011;42279;51.388;7.000;2023-04-22T06:42:42;2.73;;;2.63;;
2313;SDS011;42279;51.388;7.000;2023-04-22T06:45:07;2.70;;;2.70;;
2313;SDS011;42279;51.388;7.000;2023-04-22T06:47:36;2.50;;;2.50;;
2313;SDS011;42279;51.388;7.000;2023-04-22T06:50:03;2.50;;;2.50;;
2313;SDS011;42279;51.388;7.000;2023-04-22T06:52:29;1.90;;;1.80;;
2313;SDS011;42279;51.388;7.000;2023-04-22T06:54:54;4.57;;;2.20;;
2313;SDS011;42279;51.388;7.000;2023-04-22T06:57:20;2.17;;;2.07;;
2313;SDS011;42279;51.388;7.000;2023-04-22T06:59:47;2.70;;;2.70;;
2313;SDS011;42279;51.388;7.000;2023-04-22T07:02:12;2.60;;;2.50;;
2313;SDS011;42279;51.388;7.000;2023-04-22T07:04:38;2.47;;;2.47;;
2313;SDS011;42279;51.388;7.000;2023-04-22T07:07:07;2.37;;;2.37;;
2313;SDS011;42279;51.388;7.000;2023-04-22T07:09:33;2.50;;;2.07;;
2313;SDS011;42279;51.388;7.000;2023-04-22T07:12:00;2.60;;;2.60;;
2313;SDS011;42279;51.388;7.000;2023-04-22T07:14:26;2.63;;;2.50;;
2313;SDS011;42279;51.388;7.000;2023-04-22T07:16:52;2.23;;;2.13;;
2313;SDS011;42279;51.388;7.000;2023-04-22T07:19:19;2.93;;;2.93;;
2313;SDS011;42279;51.388;7.000;2023-04-22T07:21:45;2.37;;;2.33;;
2313;SDS011;42279;51.388;7.000;2023-04-22T07:24:11;2.23;;;2.23;;
2313;SDS011;42279;51.388;7.000;2023-04-22T07:26:38;2.17;;;2.13;;
2313;SDS011;42279;51.388;7.000;2023-04-22T07:29:05;2.97;;;2.87;;
2313;SDS011;42279;51.388;7.000;2023-04-22T07:31:32;2.03;;;2.03;;
2313;SDS011;42279;51.388;7.000;2023-04-22T07:33:58;2.03;;;2.03;;
2313;SDS011;42279;51.388;7.000;2023-04-22T07:36:24;2.23;;;2.13;;
2313;SDS011;42279;51.388;7.000;2023-04-22T07:38:50;2.27;;;2.17;;
2313;SDS011;42279;51.388;7.000;2023-04-22T07:41:16;2.20;;;2.20;;
2313;SDS011;42279;51.388;7.000;2023-04-22T07:43:42;2.17;;;2.13;;
2313;SDS011;42279;51.388;7.000;2023-04-22T07:46:08;2.30;;;2.30;;
2313;SDS011;42279;51.388;7.000;2023-04-22T07:48:34;2.20;;;2.20;;
2313;SDS011;42279;51.388;7.000;2023-04-22T07:51:00;4.13;;;3.67;;
2313;SDS011;42279;51.388;7.000;2023-04-22T07:53:26;2.40;;;2.20;;
2313;SDS011;42279;51.388;7.000;2023-04-22T07:55:53;2.47;;;2.47;;
2313;SDS011;42279;51.388;7.000;2023-04-22T07:58:20;2.63;;;2.57;;
2313;SDS011;42279;51.388;7.000;2023-04-22T08:00:46;2.30;;;2.30;;
2313;SDS011;42279;51.388;7.000;2023-04-22T08:03:12;2.30;;;2.17;;
2313;SDS011;42279;51.388;7.000;2023-04-22T08:05:38;3.00;;;2.90;;
2313;SDS011;42279;51.388;7.000;2023-04-22T08:08:04;1.87;;;1.87;;
2313;SDS011;42279;51.388;7.000;2023-04-22T08:10:30;3.40;;;3.20;;
2313;SDS011;42279;51.388;7.000;2023-04-22T08:12:57;2.37;;;2.37;;
2313;SDS011;42279;51.388;7.000;2023-04-22T08:15:23;2.07;;;1.97;;
2313;SDS011;42279;51.388;7.000;2023-04-22T08:17:49;3.07;;;2.60;;
2313;SDS011;42279;51.388;7.000;2023-04-22T08:20:15;2.33;;;2.33;;
2313;SDS011;42279;51.388;7.000;2023-04-22T08:22:42;7.30;;;2.10;;
2313;SDS011;42279;51.388;7.000;2023-04-22T08:25:09;2.08;;;2.08;;
2313;SDS011;42279;51.388;7.000;2023-04-22T08:27:35;2.63;;;2.53;;
2313;SDS011;42279;51.388;7.000;2023-04-22T08:30:02;2.60;;;2.60;;
2313;SDS011;42279;51.388;7.000;2023-04-22T08:32:28;23.35;;;21.13;;
2313;SDS011;42279;51.388;7.000;2023-04-22T08:34:56;3.40;;;3.40;;
2313;SDS011;42279;51.388;7.000;2023-04-22T08:37:22;3.00;;;2.90;;
2313;SDS011;42279;51.388;7.000;2023-04-22T08:39:48;6.80;;;2.53;;
2313;SDS011;42279;51.388;7.000;2023-04-22T08:42:14;1.90;;;1.90;;
2313;SDS011;42279;51.388;7.000;2023-04-22T08:44:40;2.90;;;2.77;;
2313;SDS011;42279;51.388;7.000;2023-04-22T08:47:07;1.83;;;1.73;;
2313;SDS011;42279;51.388;7.000;2023-04-22T08:49:34;2.60;;;2.50;;
2313;SDS011;42279;51.388;7.000;2023-04-22T08:52:00;2.27;;;2.17;;
2313;SDS011;42279;51.388;7.000;2023-04-22T08:54:26;2.10;;;2.10;;
2313;SDS011;42279;51.388;7.000;2023-04-22T08:56:52;2.10;;;2.10;;
2313;SDS011;42279;51.388;7.000;2023-04-22T08:59:19;1.67;;;1.67;;
2313;SDS011;42279;51.388;7.000;2023-04-22T09:01:46;2.67;;;2.63;;
2313;SDS011;42279;51.388;7.000;2023-04-22T09:04:13;2.30;;;2.30;;
2313;SDS011;42279;51.388;7.000;2023-04-22T09:06:40;2.23;;;2.23;;
2313;SDS011;42279;51.388;7.000;2023-04-22T09:09:06;4.43;;;4.20;;
2313;SDS011;42279;51.388;7.000;2023-04-22T09:11:35;2.33;;;2.23;;
2313;SDS011;42279;51.388;7.000;2023-04-22T09:14:02;2.47;;;2.27;;
2313;SDS011;42279;51.388;7.000;2023-04-22T09:16:32;2.13;;;2.13;;
2313;SDS011;42279;51.388;7.000;2023-04-22T09:19:01;2.80;;;2.80;;
2313;SDS011;42279;51.388;7.000;2023-04-22T09:21:27;3.70;;;3.60;;
2313;SDS011;42279;51.388;7.000;2023-04-22T09:23:54;2.50;;;2.40;;
2313;SDS011;42279;51.388;7.000;2023-04-22T09:26:21;2.60;;;2.50;;
2313;SDS011;42279;51.388;7.000;2023-04-22T09:28:54;2.50;;;2.30;;
2313;SDS011;42279;51.388;7.000;2023-04-22T09:31:25;1.90;;;1.80;;
2313;SDS011;42279;51.388;7.000;2023-04-22T09:34:00;2.47;;;2.47;;
2313;SDS011;42279;51.388;7.000;2023-04-22T09:36:30;2.23;;;2.23;;
2313;SDS011;42279;51.388;7.000;2023-04-22T09:39:06;2.60;;;2.50;;
2313;SDS011;42279;51.388;7.000;2023-04-22T09:43:59;2.60;;;2.60;;
2313;SDS011;42279;51.388;7.000;2023-04-22T09:46:26;2.35;;;2.35;;
2313;SDS011;42279;51.388;7.000;2023-04-22T09:51:18;2.95;;;2.80;;
2313;SDS011;42279;51.388;7.000;2023-04-22T09:53:44;3.00;;;2.70;;
2313;SDS011;42279;51.388;7.000;2023-04-22T09:56:10;2.40;;;2.30;;
2313;SDS011;42279;51.388;7.000;2023-04-22T09:58:39;2.17;;;2.07;;
2313;SDS011;42279;51.388;7.000;2023-04-22T10:01:07;2.70;;;2.50;;
2313;SDS011;42279;51.388;7.000;2023-04-22T10:03:33;2.50;;;2.30;;
2313;SDS011;42279;51.388;7.000;2023-04-22T10:05:59;2.47;;;2.47;;
2313;SDS011;42279;51.388;7.000;2023-04-22T10:08:25;2.53;;;2.43;;
2313;SDS011;42279;51.388;7.000;2023-04-22T10:10:52;2.50;;;2.40;;
2313;SDS011;42279;51.388;7.000;2023-04-22T10:13:18;3.17;;;3.00;;
2313;SDS011;42279;51.388;7.000;2023-04-22T10:15:47;2.77;;;2.77;;
2313;SDS011;42279;51.388;7.000;2023-04-22T10:18:21;2.87;;;2.67;;
2313;SDS011;42279;51.388;7.000;2023-04-22T10:20:48;2.00;;;2.00;;
2313;SDS011;42279;51.388;7.000;2023-04-22T10:23:17;2.33;;;2.23;;
2313;SDS011;42279;51.388;7.000;2023-04-22T10:25:47;2.97;;;2.87;;
2313;SDS011;42279;51.388;7.000;2023-04-22T10:28:15;3.00;;;2.80;;
2313;SDS011;42279;51.388;7.000;2023-04-22T10:30:42;2.47;;;2.37;;
2313;SDS011;42279;51.388;7.000;2023-04-22T10:38:36;3.30;;;3.10;;
2313;SDS011;42279;51.388;7.000;2023-04-22T10:41:03;2.70;;;2.60;;
2313;SDS011;42279;51.388;7.000;2023-04-22T10:48:59;3.60;;;3.50;;
2313;SDS011;42279;51.388;7.000;2023-04-22T10:51:37;2.90;;;2.80;;
2313;SDS011;42279;51.388;7.000;2023-04-22T10:54:03;2.43;;;2.43;;
2313;SDS011;42279;51.388;7.000;2023-04-22T10:56:29;2.40;;;2.40;;
2313;SDS011;42279;51.388;7.000;2023-04-22T10:58:55;3.60;;;3.50;;
2313;SDS011;42279;51.388;7.000;2023-04-22T11:01:21;3.13;;;3.03;;
2313;SDS011;42279;51.388;7.000;2023-04-22T11:03:47;4.70;;;4.60;;
2313;SDS011;42279;51.388;7.000;2023-04-22T11:06:17;3.10;;;3.10;;
2313;SDS011;42279;51.388;7.000;2023-04-22T11:08:44;5.87;;;5.60;;
2313;SDS011;42279;51.388;7.000;2023-04-22T11:11:10;5.00;;;4.73;;
2313;SDS011;42279;51.388;7.000;2023-04-22T11:13:38;29.37;;;21.77;;
2313;SDS011;42279;51.388;7.000;2023-04-22T11:16:07;4.03;;;3.92;;
2313;SDS011;42279;51.388;7.000;2023-04-22T11:18:33;2.67;;;2.57;;
2313;SDS011;42279;51.388;7.000;2023-04-22T11:21:03;3.38;;;3.20;;
2313;SDS011;42279;51.388;7.000;2023-04-22T11:23:30;2.90;;;2.57;;
2313;SDS011;42279;51.388;7.000;2023-04-22T11:25:57;4.75;;;4.35;;
2313;SDS011;42279;51.388;7.000;2023-04-22T11:28:24;3.20;;;3.10;;
2313;SDS011;42279;51.388;7.000;2023-04-22T11:30:50;3.73;;;3.63;;
2313;SDS011;42279;51.388;7.000;2023-04-22T11:33:17;2.90;;;2.70;;
2313;SDS011;42279;51.388;7.000;2023-04-22T11:35:44;3.80;;;3.33;;
2313;SDS011;42279;51.388;7.000;2023-04-22T11:38:10;2.90;;;2.80;;
2313;SDS011;42279;51.388;7.000;2023-04-22T11:40:36;2.47;;;2.47;;
2313;SDS011;42279;51.388;7.000;2023-04-22T11:43:03;2.97;;;2.77;;
2313;SDS011;42279;51.388;7.000;2023-04-22T11:45:31;2.90;;;2.80;;
2313;SDS011;42279;51.388;7.000;2023-04-22T11:47:57;5.40;;;5.20;;
2313;SDS011;42279;51.388;7.000;2023-04-22T11:50:24;3.07;;;2.90;;
2313;SDS011;42279;51.388;7.000;2023-04-22T11:55:49;5.40;;;2.53;;
2313;SDS011;42279;51.388;7.000;2023-04-22T11:58:18;3.33;;;2.50;;
2313;SDS011;42279;51.388;7.000;2023-04-22T12:10:38;2.80;;;2.70;;
2313;SDS011;42279;51.388;7.000;2023-04-22T12:13:05;2.87;;;2.77;;
2313;SDS011;42279;51.388;7.000;2023-04-22T12:15:38;2.60;;;2.50;;
2313;SDS011;42279;51.388;7.000;2023-04-22T12:18:05;3.00;;;2.90;;
2313;SDS011;42279;51.388;7.000;2023-04-22T12:20:34;4.60;;;2.50;;
2313;SDS011;42279;51.388;7.000;2023-04-22T12:23:01;3.17;;;2.97;;
2313;SDS011;42279;51.388;7.000;2023-04-22T12:25:27;2.80;;;2.70;;
2313;SDS011;42279;51.388;7.000;2023-04-22T12:27:53;2.80;;;2.70;;
2313;SDS011;42279;51.388;7.000;2023-04-22T12:30:20;3.10;;;2.90;;
2313;SDS011;42279;51.388;7.000;2023-04-22T12:32:48;3.27;;;3.07;;
2313;SDS011;42279;51.388;7.000;2023-04-22T12:35:14;2.10;;;2.10;;
2313;SDS011;42279;51.388;7.000;2023-04-22T12:37:41;2.83;;;2.73;;
2313;SDS011;42279;51.388;7.000;2023-04-22T12:40:07;2.77;;;2.77;;
2313;SDS011;42279;51.388;7.000;2023-04-22T12:42:34;2.87;;;2.77;;
2313;SDS011;42279;51.388;7.000;2023-04-22T12:45:00;2.73;;;2.73;;
2313;SDS011;42279;51.388;7.000;2023-04-22T12:47:26;2.90;;;2.70;;
2313;SDS011;42279;51.388;7.000;2023-04-22T12:49:52;2.97;;;2.97;;
2313;SDS011;42279;51.388;7.000;2023-04-22T12:52:22;3.37;;;3.30;;
2313;SDS011;42279;51.388;7.000;2023-04-22T12:54:52;3.40;;;3.20;;
2313;SDS011;42279;51.388;7.000;2023-04-22T12:57:24;2.90;;;2.80;;
2313;SDS011;42279;51.388;7.000;2023-04-22T12:59:58;6.87;;;6.30;;
2313;SDS011;42279;51.388;7.000;2023-04-22T13:02:46;2.73;;;2.63;;
2313;SDS011;42279;51.388;7.000;2023-04-22T13:05:26;2.80;;;2.80;;
2313;SDS011;42279;51.388;7.000;2023-04-22T13:08:00;4.73;;;4.43;;
2313;SDS011;42279;51.388;7.000;2023-04-22T13:10:30;3.67;;;3.47;;
2313;SDS011;42279;51.388;7.000;2023-04-22T13:12:56;3.60;;;3.40;;
2313;SDS011;42279;51.388;7.000;2023-04-22T13:15:22;3.33;;;3.13;;
2313;SDS011;42279;51.388;7.000;2023-04-22T13:17:50;2.77;;;2.70;;
2313;SDS011;42279;51.388;7.000;2023-04-22T13:20:16;3.20;;;3.10;;
2313;SDS011;42279;51.388;7.000;2023-04-22T13:22:42;2.90;;;2.90;;
2313;SDS011;42279;51.388;7.000;2023-04-22T13:25:08;2.90;;;2.90;;
2313;SDS011;42279;51.388;7.000;2023-04-22T13:27:35;2.90;;;2.80;;
2313;SDS011;42279;51.388;7.000;2023-04-22T13:30:01;3.70;;;3.60;;
2313;SDS011;42279;51.388;7.000;2023-04-22T13:32:27;5.77;;;5.20;;
2313;SDS011;42279;51.388;7.000;2023-04-22T13:34:53;3.60;;;3.50;;
2313;SDS011;42279;51.388;7.000;2023-04-22T13:37:19;2.83;;;2.83;;
2313;SDS011;42279;51.388;7.000;2023-04-22T13:39:46;3.30;;;3.10;;
2313;SDS011;42279;51.388;7.000;2023-04-22T13:42:12;3.17;;;3.07;;
2313;SDS011;42279;51.388;7.000;2023-04-22T13:44:38;3.67;;;3.57;;
2313;SDS011;42279;51.388;7.000;2023-04-22T13:47:04;3.60;;;3.40;;
2313;SDS011;42279;51.388;7.000;2023-04-22T13:49:30;5.93;;;5.60;;
2313;SDS011;42279;51.388;7.000;2023-04-22T13:51:56;7.80;;;6.20;;
2313;SDS011;42279;51.388;7.000;2023-04-22T13:54:23;3.50;;;3.40;;
2313;SDS011;42279;51.388;7.000;2023-04-22T13:56:50;2.90;;;2.90;;
2313;SDS011;42279;51.388;7.000;2023-04-22T13:59:16;3.23;;;3.03;;
2313;SDS011;42279;51.388;7.000;2023-04-22T14:01:42;2.40;;;2.40;;
2313;SDS011;42279;51.388;7.000;2023-04-22T14:04:08;3.00;;;2.80;;
2313;SDS011;42279;51.388;7.000;2023-04-22T14:06:34;2.80;;;2.70;;
2313;SDS011;42279;51.388;7.000;2023-04-22T14:09:01;3.13;;;2.83;;
2313;SDS011;42279;51.388;7.000;2023-04-22T14:11:28;3.00;;;2.90;;
2313;SDS011;42279;51.388;7.000;2023-04-22T14:13:54;3.07;;;2.97;;
2313;SDS011;42279;51.388;7.000;2023-04-22T14:16:20;2.20;;;2.20;;
2313;SDS011;42279;51.388;7.000;2023-04-22T14:18:46;2.30;;;2.30;;
2313;SDS011;42279;51.388;7.000;2023-04-22T14:21:12;2.33;;;2.30;;
2313;SDS011;42279;51.388;7.000;2023-04-22T14:23:39;2.07;;;2.07;;
2313;SDS011;42279;51.388;7.000;2023-04-22T14:26:07;3.27;;;3.00;;
2313;SDS011;42279;51.388;7.000;2023-04-22T14:28:33;2.50;;;2.40;;
2313;SDS011;42279;51.388;7.000;2023-04-22T14:30:59;3.23;;;3.13;;
2313;SDS011;42279;51.388;7.000;2023-04-22T14:33:26;2.57;;;2.57;;
2313;SDS011;42279;51.388;7.000;2023-04-22T14:35:52;2.63;;;2.63;;
2313;SDS011;42279;51.388;7.000;2023-04-22T14:38:19;3.00;;;2.80;;
2313;SDS011;42279;51.388;7.000;2023-04-22T14:40:45;2.90;;;2.70;;
2313;SDS011;42279;51.388;7.000;2023-04-22T14:43:12;2.47;;;2.37;;
2313;SDS011;42279;51.388;7.000;2023-04-22T14:45:38;2.63;;;2.53;;
2313;SDS011;42279;51.388;7.000;2023-04-22T14:48:04;3.77;;;3.47;;
2313;SDS011;42279;51.388;7.000;2023-04-22T14:50:30;2.80;;;2.80;;
2313;SDS011;42279;51.388;7.000;2023-04-22T14:52:57;3.23;;;3.13;;
2313;SDS011;42279;51.388;7.000;2023-04-22T14:55:23;3.47;;;3.37;;
2313;SDS011;42279;51.388;7.000;2023-04-22T14:57:50;3.17;;;3.17;;
2313;SDS011;42279;51.388;7.000;2023-04-22T15:00:16;7.13;;;6.60;;
2313;SDS011;42279;51.388;7.000;2023-04-22T15:02:43;5.20;;;4.97;;
2313;SDS011;42279;51.388;7.000;2023-04-22T15:05:09;3.03;;;3.03;;
2313;SDS011;42279;51.388;7.000;2023-04-22T15:07:35;4.13;;;4.03;;
2313;SDS011;42279;51.388;7.000;2023-04-22T15:10:01;4.03;;;3.80;;
2313;SDS011;42279;51.388;7.000;2023-04-22T15:12:27;3.00;;;2.90;;
2313;SDS011;42279;51.388;7.000;2023-04-22T15:14:53;3.20;;;3.10;;
2313;SDS011;42279;51.388;7.000;2023-04-22T15:17:19;5.70;;;3.90;;
2313;SDS011;42279;51.388;7.000;2023-04-22T15:19:45;4.57;;;4.17;;